createdAt,value
2023-01-30T00:01:45.155Z,19.90
2023-01-30T00:04:13.896Z,22.73
2023-01-30T00:06:42.139Z,19.80
2023-01-30T00:09:13.709Z,21.27
2023-01-30T00:11:40.369Z,21.20
2023-01-30T00:14:07.011Z,19.87
2023-01-30T00:16:33.973Z,19.07
2023-01-30T00:19:00.769Z,22.40
2023-01-30T00:21:27.391Z,18.17
2023-01-30T00:23:54.102Z,21.53
2023-01-30T00:26:20.824Z,18.23
2023-01-30T00:28:47.535Z,30.43
2023-01-30T00:31:14.329Z,23.97
2023-01-30T00:33:41.280Z,22.80
2023-01-30T00:36:09.677Z,42.00
2023-01-30T00:38:36.665Z,20.30
2023-01-30T00:41:03.652Z,21.53
2023-01-30T00:43:48.931Z,18.53
2023-01-30T00:46:54.364Z,19.17
2023-01-30T00:49:21.041Z,19.20
2023-01-30T00:51:47.808Z,16.70
2023-01-30T00:54:14.534Z,17.13
2023-01-30T00:56:41.211Z,17.20
2023-01-30T00:59:07.872Z,18.73
2023-01-30T01:01:34.645Z,17.17
2023-01-30T01:04:01.343Z,17.57
2023-01-30T01:06:27.991Z,18.37
2023-01-30T01:08:54.689Z,16.47
2023-01-30T01:11:24.754Z,21.00
2023-01-30T01:14:02.335Z,17.63
2023-01-30T01:16:31.327Z,17.73
2023-01-30T01:18:58.485Z,17.03
2023-01-30T01:21:25.459Z,20.33
2023-01-30T01:23:58.033Z,17.63
2023-01-30T01:26:25.291Z,17.97
2023-01-30T01:28:59.231Z,16.77
2023-01-30T01:31:26.252Z,16.37
2023-01-30T01:33:53.049Z,17.47
2023-01-30T01:36:50.019Z,19.73
2023-01-30T01:39:06.539Z,18.83
2023-01-30T01:41:33.161Z,18.77
2023-01-30T01:44:04.284Z,19.53
2023-01-30T01:46:41.904Z,16.60
2023-01-30T01:49:16.954Z,17.60
2023-01-30T01:52:06.641Z,23.40
2023-01-30T01:54:50.325Z,18.47
2023-01-30T01:57:37.698Z,18.90
2023-01-30T02:00:13.696Z,21.50
2023-01-30T02:02:43.731Z,17.17
2023-01-30T02:05:12.697Z,18.07
2023-01-30T02:07:50.290Z,17.50
2023-01-30T02:10:24.794Z,17.80
2023-01-30T02:12:52.059Z,16.93
2023-01-30T02:15:20.017Z,16.70
2023-01-30T02:17:47.060Z,17.60
2023-01-30T02:20:29.084Z,16.23
2023-01-30T02:23:22.089Z,16.53
2023-01-30T02:26:03.995Z,19.60
2023-01-30T02:28:30.584Z,16.70
2023-01-30T02:31:16.127Z,18.03
2023-01-30T02:33:55.552Z,16.83
2023-01-30T02:36:38.877Z,16.60
2023-01-30T02:39:14.222Z,18.47
2023-01-30T02:42:00.507Z,15.10
2023-01-30T02:44:37.348Z,21.67
2023-01-30T02:47:08.116Z,16.87
2023-01-30T02:49:54.737Z,18.17
2023-01-30T02:52:22.821Z,21.13
2023-01-30T02:54:49.454Z,16.37
2023-01-30T02:57:21.712Z,19.23
2023-01-30T03:00:02.020Z,15.73
2023-01-30T03:02:46.785Z,16.30
2023-01-30T03:05:51.261Z,15.93
2023-01-30T03:08:32.078Z,17.33
2023-01-30T03:11:08.006Z,15.63
2023-01-30T03:14:01.027Z,16.37
2023-01-30T03:16:36.624Z,19.30
2023-01-30T03:19:06.540Z,17.30
2023-01-30T03:21:33.459Z,19.77
2023-01-30T03:24:00.128Z,19.37
2023-01-30T03:26:33.072Z,18.80
2023-01-30T03:29:01.364Z,19.00
2023-01-30T03:31:28.153Z,18.00
2023-01-30T03:33:54.804Z,22.80
2023-01-30T03:36:21.540Z,17.80
2023-01-30T03:38:48.221Z,16.23
2023-01-30T03:41:15.221Z,17.17
2023-01-30T03:43:41.913Z,16.43
2023-01-30T03:46:08.616Z,17.70
2023-01-30T03:48:35.266Z,16.20
2023-01-30T03:51:01.994Z,16.77
2023-01-30T03:53:28.628Z,16.53
2023-01-30T03:55:55.259Z,16.97
2023-01-30T03:58:21.928Z,17.83
2023-01-30T04:00:48.660Z,17.80
2023-01-30T04:03:15.775Z,17.93
2023-01-30T04:05:45.248Z,16.43
2023-01-30T04:08:11.928Z,15.27
2023-01-30T04:10:38.556Z,16.83
2023-01-30T04:13:05.200Z,14.63
2023-01-30T04:15:32.055Z,20.13
2023-01-30T04:17:58.712Z,14.93
2023-01-30T04:20:25.438Z,15.47
2023-01-30T04:22:52.096Z,17.60
2023-01-30T04:25:19.099Z,16.27
2023-01-30T04:27:46.067Z,17.10
2023-01-30T04:30:12.850Z,15.40
2023-01-30T04:32:39.521Z,15.20
2023-01-30T04:35:06.466Z,17.30
2023-01-30T04:37:33.151Z,16.47
2023-01-30T04:40:02.869Z,18.13
2023-01-30T04:42:30.364Z,16.80
2023-01-30T04:44:57.090Z,16.03
2023-01-30T04:47:23.797Z,18.73
2023-01-30T04:49:50.497Z,18.30
2023-01-30T04:52:17.099Z,14.87
2023-01-30T04:54:43.863Z,19.47
2023-01-30T04:57:10.568Z,15.70
2023-01-30T04:59:37.153Z,16.23
2023-01-30T05:02:03.849Z,15.37
2023-01-30T05:04:30.541Z,16.10
2023-01-30T05:06:57.226Z,15.10
2023-01-30T05:09:23.909Z,17.37
2023-01-30T05:11:50.571Z,15.43
2023-01-30T05:14:17.392Z,16.27
2023-01-30T05:16:44.058Z,16.50
2023-01-30T05:19:13.995Z,14.03
2023-01-30T05:21:42.808Z,18.30
2023-01-30T05:24:09.444Z,16.30
2023-01-30T05:26:36.187Z,14.47
2023-01-30T05:29:02.950Z,16.40
2023-01-30T05:31:29.636Z,17.77
2023-01-30T05:33:56.468Z,15.10
2023-01-30T05:36:23.812Z,14.87
2023-01-30T05:38:50.621Z,15.03
2023-01-30T05:41:17.727Z,11.73
2023-01-30T05:43:48.409Z,15.33
2023-01-30T05:46:15.135Z,16.73
2023-01-30T05:48:41.761Z,16.20
2023-01-30T05:51:17.142Z,13.40
2023-01-30T05:53:43.822Z,15.27
2023-01-30T05:56:10.556Z,13.47
2023-01-30T05:58:37.279Z,14.80
2023-01-30T06:01:08.520Z,13.80
2023-01-30T06:03:36.655Z,13.47
2023-01-30T06:06:05.001Z,20.40
2023-01-30T06:08:32.624Z,15.50
2023-01-30T06:11:07.158Z,12.50
2023-01-30T06:13:34.533Z,12.70
2023-01-30T06:16:01.586Z,13.13
2023-01-30T06:18:28.414Z,15.20
2023-01-30T06:20:55.161Z,14.60
2023-01-30T06:23:23.560Z,15.97
2023-01-30T06:25:51.472Z,12.33
2023-01-30T06:28:19.258Z,13.30
2023-01-30T06:30:46.042Z,12.37
2023-01-30T06:33:12.790Z,12.93
2023-01-30T06:35:40.189Z,12.77
2023-01-30T06:38:09.580Z,13.13
2023-01-30T06:40:36.278Z,11.50
2023-01-30T06:43:03.341Z,11.00
2023-01-30T06:45:30.063Z,13.43
2023-01-30T06:47:57.123Z,15.07
2023-01-30T06:50:26.177Z,11.03
2023-01-30T06:52:54.058Z,12.03
2023-01-30T06:55:23.985Z,12.23
2023-01-30T06:57:50.798Z,12.73
2023-01-30T07:02:46.415Z,12.77
2023-01-30T07:05:13.171Z,11.60
2023-01-30T07:07:40.085Z,15.10
2023-01-30T07:10:09.234Z,12.33
2023-01-30T07:12:36.717Z,10.23
2023-01-30T07:15:05.143Z,12.00
2023-01-30T07:17:32.005Z,11.33
2023-01-30T07:19:58.862Z,12.03
2023-01-30T07:22:25.861Z,12.87
2023-01-30T07:24:52.541Z,14.73
2023-01-30T07:27:19.358Z,11.83
2023-01-30T07:29:46.067Z,11.07
2023-01-30T07:32:19.086Z,12.17
2023-01-30T07:34:47.015Z,11.03
2023-01-30T07:37:14.131Z,10.63
2023-01-30T07:39:41.101Z,10.70
2023-01-30T07:42:08.472Z,9.97
2023-01-30T07:44:35.294Z,9.67
2023-01-30T07:47:02.109Z,10.27
2023-01-30T07:49:29.088Z,11.50
2023-01-30T07:51:55.770Z,10.27
2023-01-30T07:54:22.565Z,9.47
2023-01-30T07:56:49.268Z,10.90
2023-01-30T07:59:15.971Z,10.97
2023-01-30T08:01:42.715Z,11.63
2023-01-30T08:04:09.428Z,11.03
2023-01-30T08:06:39.155Z,11.40
2023-01-30T08:09:07.159Z,10.13
2023-01-30T08:11:34.683Z,12.90
2023-01-30T08:14:01.487Z,9.80
2023-01-30T08:16:28.257Z,9.93
2023-01-30T08:18:54.962Z,10.30
2023-01-30T08:21:21.692Z,11.40
2023-01-30T08:23:48.534Z,11.07
2023-01-30T08:26:15.423Z,7.67
2023-01-30T08:28:42.320Z,10.80
2023-01-30T08:31:11.148Z,10.57
2023-01-30T08:33:37.966Z,8.97
2023-01-30T08:36:05.232Z,10.03
2023-01-30T08:38:31.878Z,10.37
2023-01-30T08:40:59.499Z,9.70
2023-01-30T08:43:26.554Z,9.67
2023-01-30T08:45:54.720Z,9.80
2023-01-30T08:48:21.536Z,12.67
2023-01-30T08:50:50.904Z,10.83
2023-01-30T08:53:17.548Z,10.43
2023-01-30T08:55:45.258Z,9.77
2023-01-30T08:58:11.972Z,9.23
2023-01-30T09:00:39.764Z,8.43
2023-01-30T09:03:06.484Z,6.90
2023-01-30T09:05:33.184Z,8.07
2023-01-30T09:07:59.854Z,8.80
2023-01-30T09:10:26.576Z,7.50
2023-01-30T09:12:53.262Z,9.57
2023-01-30T09:15:20.032Z,7.30
2023-01-30T09:17:46.707Z,8.70
2023-01-30T09:20:13.779Z,8.00
2023-01-30T09:22:40.609Z,9.20
2023-01-30T09:25:08.218Z,6.80
2023-01-30T09:27:35.179Z,8.37
2023-01-30T09:30:01.857Z,8.10
2023-01-30T09:32:28.509Z,7.57
2023-01-30T09:34:55.204Z,6.73
2023-01-30T09:37:22.032Z,6.97
2023-01-30T09:39:48.707Z,7.57
2023-01-30T09:42:52.792Z,6.10
2023-01-30T09:45:22.482Z,5.63
2023-01-30T09:47:51.908Z,6.97
2023-01-30T09:50:41.108Z,5.97
2023-01-30T09:53:30.847Z,6.00
2023-01-30T09:55:59.437Z,7.03
2023-01-30T09:58:52.667Z,4.57
2023-01-30T10:01:31.727Z,8.23
2023-01-30T10:04:15.170Z,5.73
2023-01-30T10:06:55.835Z,6.10
2023-01-30T10:09:36.464Z,8.53
2023-01-30T10:12:29.662Z,6.37
2023-01-30T10:15:14.757Z,6.77
2023-01-30T10:17:55.720Z,6.37
2023-01-30T10:20:43.564Z,8.33
2023-01-30T10:23:47.425Z,8.30
2023-01-30T10:26:24.764Z,6.80
2023-01-30T10:29:07.801Z,7.47
2023-01-30T10:31:46.067Z,4.97
2023-01-30T10:34:38.649Z,5.90
2023-01-30T10:37:19.800Z,6.23
2023-01-30T10:40:02.163Z,3.70
2023-01-30T10:43:12.290Z,5.73
2023-01-30T10:45:45.187Z,6.63
2023-01-30T10:48:43.187Z,6.43
2023-01-30T10:51:18.760Z,5.13
2023-01-30T10:53:53.643Z,4.87
2023-01-30T10:56:30.154Z,4.27
2023-01-30T10:59:14.391Z,3.20
2023-01-30T11:01:45.453Z,3.10
2023-01-30T11:04:30.685Z,5.83
2023-01-30T11:07:00.097Z,4.17
2023-01-30T11:09:39.239Z,3.20
2023-01-30T11:12:06.149Z,3.47
2023-01-30T11:15:04.050Z,3.30
2023-01-30T11:17:38.401Z,4.43
2023-01-30T11:20:32.370Z,3.33
2023-01-30T11:23:08.624Z,3.33
2023-01-30T11:26:10.497Z,5.40
2023-01-30T11:28:48.923Z,3.63
2023-01-30T11:31:41.284Z,3.10
2023-01-30T11:34:17.480Z,3.27
2023-01-30T11:36:47.100Z,2.57
2023-01-30T11:39:14.142Z,2.03
2023-01-30T11:41:56.802Z,2.57
2023-01-30T11:44:35.101Z,2.87
2023-01-30T11:47:23.474Z,2.43
2023-01-30T11:50:01.852Z,2.67
2023-01-30T11:52:45.736Z,3.27
2023-01-30T11:55:16.458Z,2.37
2023-01-30T11:57:47.167Z,2.77
2023-01-30T12:00:23.910Z,2.90
2023-01-30T12:02:53.847Z,2.33
2023-01-30T12:05:32.036Z,3.13
2023-01-30T12:08:40.642Z,4.93
2023-01-30T12:11:27.276Z,5.37
2023-01-30T12:14:07.603Z,4.57
2023-01-30T12:17:02.104Z,3.73
2023-01-30T12:20:16.815Z,5.83
2023-01-30T12:22:51.202Z,3.20
2023-01-30T12:25:25.806Z,5.03
2023-01-30T12:30:32.458Z,5.10
2023-01-30T12:36:02.159Z,4.57
2023-01-30T12:38:35.293Z,4.77
2023-01-30T12:41:16.787Z,4.37
2023-01-30T12:44:24.766Z,3.80
2023-01-30T12:47:29.217Z,5.17
2023-01-30T12:50:01.903Z,4.37
2023-01-30T12:53:17.085Z,4.47
2023-01-30T12:55:53.095Z,5.33
2023-01-30T12:58:34.656Z,5.47
2023-01-30T13:01:25.110Z,6.53
2023-01-30T13:04:03.885Z,5.53
2023-01-30T13:06:59.534Z,7.47
2023-01-30T13:09:36.812Z,7.30
2023-01-30T13:12:30.816Z,7.93
2023-01-30T13:15:03.643Z,7.43
2023-01-30T13:18:04.754Z,9.90
2023-01-30T13:21:01.454Z,6.30
2023-01-30T13:23:31.175Z,6.93
2023-01-30T13:26:19.945Z,8.50
2023-01-30T13:28:51.251Z,8.40
2023-01-30T13:31:24.624Z,7.30
2023-01-30T13:34:07.962Z,6.27
2023-01-30T13:36:42.779Z,8.50
2023-01-30T13:39:27.723Z,6.23
2023-01-30T13:41:57.602Z,7.10
2023-01-30T13:44:31.412Z,7.70
2023-01-30T13:47:11.687Z,8.63
2023-01-30T13:49:49.019Z,6.60
2023-01-30T13:52:24.752Z,9.90
2023-01-30T13:55:06.553Z,9.90
2023-01-30T13:58:15.211Z,7.90
2023-01-30T14:00:53.142Z,7.23
2023-01-30T14:03:25.289Z,6.63
2023-01-30T14:05:52.135Z,7.53
2023-01-30T14:08:35.527Z,8.33
2023-01-30T14:11:02.662Z,9.40
2023-01-30T14:13:31.267Z,7.80
2023-01-30T14:16:01.149Z,8.23
2023-01-30T14:18:31.418Z,9.97
2023-01-30T14:21:20.221Z,7.57
2023-01-30T14:24:04.591Z,9.30
2023-01-30T14:26:52.505Z,7.97
2023-01-30T14:29:38.171Z,7.73
2023-01-30T14:32:14.180Z,10.43
2023-01-30T14:34:48.480Z,10.90
2023-01-30T14:37:29.175Z,12.77
2023-01-30T14:39:58.917Z,9.97
2023-01-30T14:42:31.326Z,10.23
2023-01-30T14:45:00.963Z,9.60
2023-01-30T14:47:34.382Z,10.63
2023-01-30T14:50:22.541Z,8.47
2023-01-30T14:52:54.503Z,7.50
2023-01-30T14:55:24.832Z,8.70
2023-01-30T14:58:01.683Z,11.83
2023-01-30T15:00:32.392Z,8.17
2023-01-30T15:03:07.909Z,7.90
2023-01-30T15:05:41.416Z,10.17
2023-01-30T15:08:10.931Z,9.70
2023-01-30T15:10:49.609Z,11.17
2023-01-30T15:13:34.781Z,8.33
2023-01-30T15:16:29.801Z,8.33
2023-01-30T15:19:14.566Z,7.33
2023-01-30T15:22:03.089Z,9.77
2023-01-30T15:24:29.732Z,9.83
2023-01-30T15:27:19.901Z,12.07
2023-01-30T15:29:58.858Z,7.33
2023-01-30T15:32:28.267Z,7.10
2023-01-30T15:34:59.476Z,8.03
2023-01-30T15:37:36.278Z,7.33
2023-01-30T15:40:20.397Z,7.37
2023-01-30T15:43:27.673Z,8.27
2023-01-30T15:46:19.024Z,9.37
2023-01-30T15:49:04.960Z,8.23
2023-01-30T15:51:33.311Z,7.70
2023-01-30T15:54:03.239Z,6.97
2023-01-30T15:56:32.065Z,5.30
2023-01-30T15:59:01.628Z,7.77
2023-01-30T16:01:28.795Z,7.00
2023-01-30T16:03:57.932Z,8.40
2023-01-30T16:06:33.706Z,7.67
2023-01-30T16:09:19.972Z,8.27
2023-01-30T16:11:47.066Z,8.67
2023-01-30T16:14:16.280Z,9.10
2023-01-30T16:16:56.982Z,10.43
2023-01-30T16:19:30.637Z,10.67
2023-01-30T16:22:05.212Z,8.53
2023-01-30T16:24:37.105Z,5.50
2023-01-30T16:27:07.886Z,6.97
2023-01-30T16:29:51.114Z,7.50
2023-01-30T16:32:19.643Z,9.47
2023-01-30T16:34:46.422Z,11.07
2023-01-30T16:37:18.935Z,9.47
2023-01-30T16:39:46.516Z,11.20
2023-01-30T16:42:22.534Z,9.47
2023-01-30T16:44:49.308Z,8.73
2023-01-30T16:47:27.264Z,6.57
2023-01-30T16:49:55.896Z,6.50
2023-01-30T16:52:41.256Z,6.40
2023-01-30T16:55:28.862Z,7.83
2023-01-30T16:58:03.173Z,5.23
2023-01-30T17:00:40.467Z,6.40
2023-01-30T17:03:31.481Z,6.20
2023-01-30T17:05:59.568Z,6.67
2023-01-30T17:08:55.665Z,7.10
2023-01-30T17:11:39.442Z,7.40
2023-01-30T17:14:25.933Z,6.40
2023-01-30T17:17:11.852Z,6.67
2023-01-30T17:19:38.647Z,7.07
2023-01-30T17:22:16.058Z,5.17
2023-01-30T17:24:42.853Z,7.67
2023-01-30T17:27:10.092Z,7.13
2023-01-30T17:29:44.980Z,5.57
2023-01-30T17:32:16.302Z,6.50
2023-01-30T17:34:43.185Z,5.77
2023-01-30T17:37:16.890Z,5.23
2023-01-30T17:39:43.971Z,4.73
2023-01-30T17:42:11.802Z,4.93
2023-01-30T17:44:38.895Z,6.20
2023-01-30T17:47:06.595Z,6.80
2023-01-30T17:49:33.346Z,5.97
2023-01-30T17:52:00.303Z,4.27
2023-01-30T17:54:27.464Z,5.07
2023-01-30T17:57:05.942Z,7.07
2023-01-30T17:59:33.434Z,6.20
2023-01-30T18:02:00.633Z,7.10
2023-01-30T18:04:27.644Z,7.57
2023-01-30T18:07:06.371Z,8.73
2023-01-30T18:09:33.181Z,7.27
2023-01-30T18:11:59.968Z,7.63
2023-01-30T18:14:26.842Z,5.13
2023-01-30T18:17:05.917Z,7.43
2023-01-30T18:19:32.750Z,6.03
2023-01-30T18:22:00.145Z,6.50
2023-01-30T18:24:26.984Z,4.33
2023-01-30T18:26:53.769Z,7.27
2023-01-30T18:29:20.668Z,12.77
2023-01-30T18:31:47.587Z,8.47
2023-01-30T18:34:14.504Z,9.03
2023-01-30T18:36:41.408Z,9.60
2023-01-30T18:39:08.162Z,10.23
2023-01-30T18:41:37.790Z,8.60
2023-01-30T18:44:06.590Z,8.03
2023-01-30T18:46:33.997Z,10.00
2023-01-30T18:49:01.088Z,6.73
2023-01-30T18:51:31.548Z,9.63
2023-01-30T18:54:01.346Z,7.03
2023-01-30T18:56:33.125Z,7.70
2023-01-30T18:59:05.269Z,6.93
2023-01-30T19:01:38.817Z,7.40
2023-01-30T19:04:08.017Z,8.10
2023-01-30T19:06:40.657Z,6.83
2023-01-30T19:09:08.941Z,6.80
2023-01-30T19:11:54.539Z,7.40
2023-01-30T19:14:21.352Z,6.57
2023-01-30T19:16:48.729Z,7.50
2023-01-30T19:19:15.629Z,7.10
2023-01-30T19:21:42.441Z,7.13
2023-01-30T19:24:13.881Z,7.73
2023-01-30T19:26:41.372Z,9.60
2023-01-30T19:29:08.663Z,5.67
2023-01-30T19:31:35.693Z,8.67
2023-01-30T19:34:06.633Z,6.43
2023-01-30T19:36:35.065Z,7.63
2023-01-30T19:39:03.670Z,7.70
2023-01-30T19:41:33.181Z,7.53
2023-01-30T19:44:01.376Z,10.03
2023-01-30T19:46:31.405Z,9.97
2023-01-30T19:48:58.514Z,8.73
2023-01-30T19:51:28.321Z,11.37
2023-01-30T19:53:57.415Z,8.33
2023-01-30T19:56:25.638Z,8.17
2023-01-30T19:58:54.920Z,8.53
2023-01-30T20:01:23.495Z,6.43
2023-01-30T20:03:50.479Z,7.90
2023-01-30T20:06:26.645Z,9.93
2023-01-30T20:08:58.270Z,8.33
2023-01-30T20:11:25.106Z,12.97
2023-01-30T20:13:53.284Z,13.80
2023-01-30T20:16:22.571Z,7.43
2023-01-30T20:18:57.950Z,8.47
2023-01-30T20:21:25.724Z,12.03
2023-01-30T20:23:53.113Z,8.77
2023-01-30T20:26:28.692Z,9.10
2023-01-30T20:28:56.069Z,8.67
2023-01-30T20:31:25.120Z,9.13
2023-01-30T20:33:53.097Z,11.13
2023-01-30T20:36:20.503Z,6.50
2023-01-30T20:38:48.675Z,8.47
2023-01-30T20:41:18.162Z,7.20
2023-01-30T20:43:49.047Z,9.27
2023-01-30T20:46:21.456Z,7.43
2023-01-30T20:48:49.000Z,7.10
2023-01-30T20:51:21.652Z,9.67
2023-01-30T20:54:09.473Z,7.93
2023-01-30T20:56:39.787Z,7.87
2023-01-30T20:59:07.601Z,10.13
2023-01-30T21:01:35.434Z,9.73
2023-01-30T21:04:22.676Z,8.07
2023-01-30T21:06:49.734Z,9.70
2023-01-30T21:09:23.402Z,9.57
2023-01-30T21:11:52.613Z,7.77
2023-01-30T21:14:19.415Z,10.57
2023-01-30T21:16:46.694Z,10.43
2023-01-30T21:19:16.368Z,8.90
2023-01-30T21:21:50.458Z,9.43
2023-01-30T21:24:20.473Z,10.77
2023-01-30T21:26:48.139Z,10.33
2023-01-30T21:29:16.832Z,9.33
2023-01-30T21:31:44.744Z,9.63
2023-01-30T21:34:12.560Z,8.10
2023-01-30T21:36:40.579Z,7.90
2023-01-30T21:39:27.839Z,11.90
2023-01-30T21:42:13.262Z,9.33
2023-01-30T21:44:40.937Z,10.00
2023-01-30T21:47:08.474Z,7.53
2023-01-30T21:49:36.735Z,8.47
2023-01-30T21:52:04.054Z,9.53
2023-01-30T21:54:31.040Z,11.03
2023-01-30T21:56:57.741Z,10.13
2023-01-30T21:59:24.520Z,9.40
2023-01-30T22:01:51.283Z,8.33
2023-01-30T22:04:19.488Z,9.00
2023-01-30T22:06:46.244Z,8.60
2023-01-30T22:09:16.737Z,8.43
2023-01-30T22:11:43.933Z,10.47
2023-01-30T22:14:13.342Z,9.43
2023-01-30T22:16:40.886Z,9.87
2023-01-30T22:19:07.997Z,7.10
2023-01-30T22:21:37.640Z,10.13
2023-01-30T22:24:05.767Z,6.30
2023-01-30T22:26:33.917Z,5.77
2023-01-30T22:29:02.108Z,5.60
2023-01-30T22:31:34.406Z,5.90
2023-01-30T22:34:01.773Z,6.33
2023-01-30T22:36:30.753Z,8.63
2023-01-30T22:38:57.528Z,10.97
2023-01-30T22:41:26.540Z,7.93
2023-01-30T22:43:58.695Z,9.47
2023-01-30T22:46:37.420Z,7.40
2023-01-30T22:49:06.062Z,6.03
2023-01-30T22:51:41.104Z,8.83
2023-01-30T22:54:11.669Z,6.07
2023-01-30T22:56:40.873Z,7.03
2023-01-30T22:59:07.691Z,8.70
2023-01-30T23:01:40.040Z,9.43
2023-01-30T23:04:18.024Z,7.30
2023-01-30T23:06:45.625Z,8.43
2023-01-30T23:09:16.846Z,9.50
2023-01-30T23:12:09.646Z,8.37
2023-01-30T23:14:37.228Z,8.63
2023-01-30T23:17:24.402Z,7.63
2023-01-30T23:19:51.180Z,11.17
2023-01-30T23:22:17.863Z,7.33
2023-01-30T23:24:45.048Z,8.27
2023-01-30T23:27:11.746Z,7.57
2023-01-30T23:29:38.946Z,8.10
2023-01-30T23:32:06.066Z,10.30
2023-01-30T23:34:32.907Z,7.73
2023-01-30T23:36:59.680Z,6.03
2023-01-30T23:39:26.305Z,8.97
2023-01-30T23:41:52.920Z,6.80
2023-01-30T23:44:19.568Z,8.93
2023-01-30T23:46:46.186Z,8.60
2023-01-30T23:49:14.757Z,8.20
2023-01-30T23:51:46.356Z,9.87
2023-01-30T23:54:14.081Z,13.20
2023-01-30T23:56:43.085Z,4.90
2023-01-30T23:59:10.597Z,5.97
